sensor_id;sensor_type;location;lat;lon;timestamp;temperature;humidity
22006;DHT22;11167;46.988;15.470;2024-02-26T00:00:16;9.90;71.90
22006;DHT22;11167;46.988;15.470;2024-02-26T00:02:18;9.90;72.70
22006;DHT22;11167;46.988;15.470;2024-02-26T00:04:19;9.90;72.80
22006;DHT22;11167;46.988;15.470;2024-02-26T00:06:20;9.80;72.70
22006;DHT22;11167;46.988;15.470;2024-02-26T00:08:21;9.80;72.80
22006;DHT22;11167;46.988;15.470;2024-02-26T00:10:23;9.80;72.80
22006;DHT22;11167;46.988;15.470;2024-02-26T00:12:26;9.80;72.80
22006;DHT22;11167;46.988;15.470;2024-02-26T00:14:27;9.70;72.70
22006;DHT22;11167;46.988;15.470;2024-02-26T00:16:29;9.70;72.70
22006;DHT22;11167;46.988;15.470;2024-02-26T00:18:30;9.70;72.70
22006;DHT22;11167;46.988;15.470;2024-02-26T00:20:31;9.70;72.80
22006;DHT22;11167;46.988;15.470;2024-02-26T00:22:32;9.60;72.60
22006;DHT22;11167;46.988;15.470;2024-02-26T00:24:34;9.60;72.70
22006;DHT22;11167;46.988;15.470;2024-02-26T00:26:35;9.60;72.80
22006;DHT22;11167;46.988;15.470;2024-02-26T00:28:37;9.60;72.60
22006;DHT22;11167;46.988;15.470;2024-02-26T00:30:38;9.50;72.70
22006;DHT22;11167;46.988;15.470;2024-02-26T00:32:39;9.50;72.70
22006;DHT22;11167;46.988;15.470;2024-02-26T00:34:40;9.50;72.70
22006;DHT22;11167;46.988;15.470;2024-02-26T00:36:42;9.50;72.70
22006;DHT22;11167;46.988;15.470;2024-02-26T00:38:43;9.40;72.60
22006;DHT22;11167;46.988;15.470;2024-02-26T00:40:45;9.40;72.70
22006;DHT22;11167;46.988;15.470;2024-02-26T00:42:47;9.40;72.70
22006;DHT22;11167;46.988;15.470;2024-02-26T00:44:48;9.30;72.60
22006;DHT22;11167;46.988;15.470;2024-02-26T00:46:50;9.30;72.50
22006;DHT22;11167;46.988;15.470;2024-02-26T00:48:51;9.30;72.50
22006;DHT22;11167;46.988;15.470;2024-02-26T00:50:53;9.30;72.50
22006;DHT22;11167;46.988;15.470;2024-02-26T00:52:54;9.20;72.50
22006;DHT22;11167;46.988;15.470;2024-02-26T00:54:55;9.20;72.50
22006;DHT22;11167;46.988;15.470;2024-02-26T00:56:57;9.20;72.50
22006;DHT22;11167;46.988;15.470;2024-02-26T00:58:58;9.20;72.60
22006;DHT22;11167;46.988;15.470;2024-02-26T01:00:59;9.20;72.50
22006;DHT22;11167;46.988;15.470;2024-02-26T01:03:01;9.10;72.50
22006;DHT22;11167;46.988;15.470;2024-02-26T01:05:03;9.10;72.50
22006;DHT22;11167;46.988;15.470;2024-02-26T01:07:04;9.10;72.50
22006;DHT22;11167;46.988;15.470;2024-02-26T01:09:06;9.00;72.30
22006;DHT22;11167;46.988;15.470;2024-02-26T01:11:08;9.00;72.50
22006;DHT22;11167;46.988;15.470;2024-02-26T01:13:09;9.00;72.30
22006;DHT22;11167;46.988;15.470;2024-02-26T01:15:10;9.00;72.40
22006;DHT22;11167;46.988;15.470;2024-02-26T01:17:12;8.90;71.70
22006;DHT22;11167;46.988;15.470;2024-02-26T01:19:14;8.90;72.40
22006;DHT22;11167;46.988;15.470;2024-02-26T01:21:16;8.90;72.40
22006;DHT22;11167;46.988;15.470;2024-02-26T01:23:17;8.90;73.10
22006;DHT22;11167;46.988;15.470;2024-02-26T01:25:19;8.80;72.30
22006;DHT22;11167;46.988;15.470;2024-02-26T01:27:20;8.80;72.40
22006;DHT22;11167;46.988;15.470;2024-02-26T01:29:21;8.80;72.30
22006;DHT22;11167;46.988;15.470;2024-02-26T01:31:22;8.80;72.40
22006;DHT22;11167;46.988;15.470;2024-02-26T01:33:24;8.80;72.50
22006;DHT22;11167;46.988;15.470;2024-02-26T01:35:26;8.70;72.40
22006;DHT22;11167;46.988;15.470;2024-02-26T01:37:27;8.70;72.40
22006;DHT22;11167;46.988;15.470;2024-02-26T01:39:30;8.70;72.40
22006;DHT22;11167;46.988;15.470;2024-02-26T01:41:31;8.70;72.30
22006;DHT22;11167;46.988;15.470;2024-02-26T01:43:32;8.60;72.40
22006;DHT22;11167;46.988;15.470;2024-02-26T01:45:34;8.60;72.40
22006;DHT22;11167;46.988;15.470;2024-02-26T01:47:35;8.60;72.40
22006;DHT22;11167;46.988;15.470;2024-02-26T01:49:37;8.60;72.40
22006;DHT22;11167;46.988;15.470;2024-02-26T01:51:41;8.50;72.30
22006;DHT22;11167;46.988;15.470;2024-02-26T01:53:44;8.50;71.90
22006;DHT22;11167;46.988;15.470;2024-02-26T01:55:45;8.50;72.30
22006;DHT22;11167;46.988;15.470;2024-02-26T01:57:48;8.50;72.40
22006;DHT22;11167;46.988;15.470;2024-02-26T01:59:50;8.50;72.50
22006;DHT22;11167;46.988;15.470;2024-02-26T02:01:54;8.40;72.40
22006;DHT22;11167;46.988;15.470;2024-02-26T02:03:58;8.40;72.40
22006;DHT22;11167;46.988;15.470;2024-02-26T02:05:59;8.40;72.50
22006;DHT22;11167;46.988;15.470;2024-02-26T02:08:00;8.40;72.40
22006;DHT22;11167;46.988;15.470;2024-02-26T02:10:05;8.30;72.50
22006;DHT22;11167;46.988;15.470;2024-02-26T02:12:09;8.30;72.40
22006;DHT22;11167;46.988;15.470;2024-02-26T02:14:10;8.30;72.40
22006;DHT22;11167;46.988;15.470;2024-02-26T02:16:12;8.30;72.40
22006;DHT22;11167;46.988;15.470;2024-02-26T02:18:13;8.30;72.50
22006;DHT22;11167;46.988;15.470;2024-02-26T02:20:16;8.20;72.40
22006;DHT22;11167;46.988;15.470;2024-02-26T02:22:18;8.20;72.40
22006;DHT22;11167;46.988;15.470;2024-02-26T02:24:19;8.20;72.40
22006;DHT22;11167;46.988;15.470;2024-02-26T02:26:21;8.20;72.40
22006;DHT22;11167;46.988;15.470;2024-02-26T02:28:26;8.10;72.40
22006;DHT22;11167;46.988;15.470;2024-02-26T02:30:29;8.10;72.40
22006;DHT22;11167;46.988;15.470;2024-02-26T02:32:31;8.10;72.50
22006;DHT22;11167;46.988;15.470;2024-02-26T02:34:33;8.10;72.40
22006;DHT22;11167;46.988;15.470;2024-02-26T02:36:35;8.10;73.20
22006;DHT22;11167;46.988;15.470;2024-02-26T02:38:37;8.00;72.40
22006;DHT22;11167;46.988;15.470;2024-02-26T02:40:38;8.00;72.40
22006;DHT22;11167;46.988;15.470;2024-02-26T02:42:39;8.00;72.40
22006;DHT22;11167;46.988;15.470;2024-02-26T02:44:46;8.00;72.30
22006;DHT22;11167;46.988;15.470;2024-02-26T02:46:48;8.00;72.40
22006;DHT22;11167;46.988;15.470;2024-02-26T02:48:50;7.90;72.40
22006;DHT22;11167;46.988;15.470;2024-02-26T02:50:52;7.90;72.30
22006;DHT22;11167;46.988;15.470;2024-02-26T02:52:53;7.90;72.50
22006;DHT22;11167;46.988;15.470;2024-02-26T02:54:54;7.90;72.50
22006;DHT22;11167;46.988;15.470;2024-02-26T02:57:11;7.90;72.50
22006;DHT22;11167;46.988;15.470;2024-02-26T02:59:12;7.80;72.40
22006;DHT22;11167;46.988;15.470;2024-02-26T03:01:13;7.80;72.50
22006;DHT22;11167;46.988;15.470;2024-02-26T03:03:14;7.80;72.50
22006;DHT22;11167;46.988;15.470;2024-02-26T03:05:16;7.80;72.50
22006;DHT22;11167;46.988;15.470;2024-02-26T03:07:17;7.80;72.50
22006;DHT22;11167;46.988;15.470;2024-02-26T03:09:18;7.70;72.50
22006;DHT22;11167;46.988;15.470;2024-02-26T03:11:20;7.70;72.50
22006;DHT22;11167;46.988;15.470;2024-02-26T03:13:21;7.70;72.50
22006;DHT22;11167;46.988;15.470;2024-02-26T03:15:22;7.70;72.50
22006;DHT22;11167;46.988;15.470;2024-02-26T03:17:23;7.70;72.60
22006;DHT22;11167;46.988;15.470;2024-02-26T03:19:27;7.60;73.30
22006;DHT22;11167;46.988;15.470;2024-02-26T03:21:28;7.60;72.50
22006;DHT22;11167;46.988;15.470;2024-02-26T03:23:29;7.60;72.50
22006;DHT22;11167;46.988;15.470;2024-02-26T03:25:32;7.60;72.60
22006;DHT22;11167;46.988;15.470;2024-02-26T03:27:34;7.60;72.50
22006;DHT22;11167;46.988;15.470;2024-02-26T03:29:36;7.60;72.50
22006;DHT22;11167;46.988;15.470;2024-02-26T03:31:37;7.50;72.60
22006;DHT22;11167;46.988;15.470;2024-02-26T03:33:39;7.50;72.50
22006;DHT22;11167;46.988;15.470;2024-02-26T03:35:40;7.50;72.50
22006;DHT22;11167;46.988;15.470;2024-02-26T03:37:41;7.50;72.70
22006;DHT22;11167;46.988;15.470;2024-02-26T03:39:43;7.50;72.60
22006;DHT22;11167;46.988;15.470;2024-02-26T03:41:44;7.40;72.60
22006;DHT22;11167;46.988;15.470;2024-02-26T03:43:45;7.40;72.60
22006;DHT22;11167;46.988;15.470;2024-02-26T03:45:46;7.40;72.60
22006;DHT22;11167;46.988;15.470;2024-02-26T03:47:48;7.40;72.60
22006;DHT22;11167;46.988;15.470;2024-02-26T03:49:49;7.40;72.70
22006;DHT22;11167;46.988;15.470;2024-02-26T03:51:50;7.30;72.60
22006;DHT22;11167;46.988;15.470;2024-02-26T03:53:51;7.30;72.60
22006;DHT22;11167;46.988;15.470;2024-02-26T03:55:53;7.30;72.60
22006;DHT22;11167;46.988;15.470;2024-02-26T03:57:56;7.30;72.70
22006;DHT22;11167;46.988;15.470;2024-02-26T03:59:57;7.30;72.70
22006;DHT22;11167;46.988;15.470;2024-02-26T04:01:58;7.30;72.70
22006;DHT22;11167;46.988;15.470;2024-02-26T04:04:00;7.30;72.70
22006;DHT22;11167;46.988;15.470;2024-02-26T04:06:02;7.20;72.70
22006;DHT22;11167;46.988;15.470;2024-02-26T04:08:04;7.20;72.70
22006;DHT22;11167;46.988;15.470;2024-02-26T04:10:10;7.20;72.70
22006;DHT22;11167;46.988;15.470;2024-02-26T04:12:12;7.20;72.70
22006;DHT22;11167;46.988;15.470;2024-02-26T04:14:14;7.10;72.80
22006;DHT22;11167;46.988;15.470;2024-02-26T04:16:15;7.10;72.70
22006;DHT22;11167;46.988;15.470;2024-02-26T04:18:17;7.10;72.70
22006;DHT22;11167;46.988;15.470;2024-02-26T04:20:19;7.10;72.90
22006;DHT22;11167;46.988;15.470;2024-02-26T04:22:20;7.10;72.70
22006;DHT22;11167;46.988;15.470;2024-02-26T04:24:21;7.10;73.60
22006;DHT22;11167;46.988;15.470;2024-02-26T04:26:22;7.10;72.80
22006;DHT22;11167;46.988;15.470;2024-02-26T04:28:23;7.00;72.90
22006;DHT22;11167;46.988;15.470;2024-02-26T04:30:26;7.00;72.90
22006;DHT22;11167;46.988;15.470;2024-02-26T04:32:28;7.00;72.90
22006;DHT22;11167;46.988;15.470;2024-02-26T04:34:29;7.00;72.90
22006;DHT22;11167;46.988;15.470;2024-02-26T04:36:30;7.00;72.90
22006;DHT22;11167;46.988;15.470;2024-02-26T04:38:31;7.00;72.90
22006;DHT22;11167;46.988;15.470;2024-02-26T04:40:33;6.90;72.80
22006;DHT22;11167;46.988;15.470;2024-02-26T04:42:34;6.90;72.80
22006;DHT22;11167;46.988;15.470;2024-02-26T04:44:35;6.90;72.80
22006;DHT22;11167;46.988;15.470;2024-02-26T04:46:36;6.90;72.90
22006;DHT22;11167;46.988;15.470;2024-02-26T04:48:38;6.90;72.90
22006;DHT22;11167;46.988;15.470;2024-02-26T04:50:39;6.90;72.90
22006;DHT22;11167;46.988;15.470;2024-02-26T04:52:41;6.90;73.00
22006;DHT22;11167;46.988;15.470;2024-02-26T04:54:42;6.80;73.00
22006;DHT22;11167;46.988;15.470;2024-02-26T04:56:43;6.80;73.70
22006;DHT22;11167;46.988;15.470;2024-02-26T04:58:44;6.80;73.00
22006;DHT22;11167;46.988;15.470;2024-02-26T05:00:46;6.80;73.10
22006;DHT22;11167;46.988;15.470;2024-02-26T05:02:47;6.80;73.00
22006;DHT22;11167;46.988;15.470;2024-02-26T05:04:48;6.80;73.10
22006;DHT22;11167;46.988;15.470;2024-02-26T05:06:49;6.70;73.00
22006;DHT22;11167;46.988;15.470;2024-02-26T05:08:51;6.70;73.00
22006;DHT22;11167;46.988;15.470;2024-02-26T05:10:52;6.70;73.20
22006;DHT22;11167;46.988;15.470;2024-02-26T05:12:53;6.70;73.00
22006;DHT22;11167;46.988;15.470;2024-02-26T05:14:54;6.70;73.00
22006;DHT22;11167;46.988;15.470;2024-02-26T05:16:55;6.70;73.20
22006;DHT22;11167;46.988;15.470;2024-02-26T05:18:57;6.70;73.20
22006;DHT22;11167;46.988;15.470;2024-02-26T05:20:58;6.60;73.10
22006;DHT22;11167;46.988;15.470;2024-02-26T05:22:59;6.60;73.20
22006;DHT22;11167;46.988;15.470;2024-02-26T05:25:01;6.60;73.20
22006;DHT22;11167;46.988;15.470;2024-02-26T05:27:02;6.60;73.20
22006;DHT22;11167;46.988;15.470;2024-02-26T05:29:03;6.60;73.20
22006;DHT22;11167;46.988;15.470;2024-02-26T05:31:05;6.60;73.20
22006;DHT22;11167;46.988;15.470;2024-02-26T05:33:06;6.60;73.20
22006;DHT22;11167;46.988;15.470;2024-02-26T05:35:08;6.60;73.30
22006;DHT22;11167;46.988;15.470;2024-02-26T05:37:09;6.50;73.20
22006;DHT22;11167;46.988;15.470;2024-02-26T05:39:10;6.50;73.20
22006;DHT22;11167;46.988;15.470;2024-02-26T05:41:12;6.50;73.30
22006;DHT22;11167;46.988;15.470;2024-02-26T05:43:13;6.50;73.50
22006;DHT22;11167;46.988;15.470;2024-02-26T05:45:16;6.50;73.70
22006;DHT22;11167;46.988;15.470;2024-02-26T05:47:18;6.50;73.30
22006;DHT22;11167;46.988;15.470;2024-02-26T05:49:19;6.40;73.30
22006;DHT22;11167;46.988;15.470;2024-02-26T05:51:20;6.40;73.30
22006;DHT22;11167;46.988;15.470;2024-02-26T05:53:21;6.40;73.30
22006;DHT22;11167;46.988;15.470;2024-02-26T05:55:23;6.40;73.30
22006;DHT22;11167;46.988;15.470;2024-02-26T05:57:24;6.40;73.40
22006;DHT22;11167;46.988;15.470;2024-02-26T05:59:25;6.40;73.40
22006;DHT22;11167;46.988;15.470;2024-02-26T06:01:26;6.40;73.40
22006;DHT22;11167;46.988;15.470;2024-02-26T06:03:28;6.40;73.40
22006;DHT22;11167;46.988;15.470;2024-02-26T06:05:29;6.30;73.40
22006;DHT22;11167;46.988;15.470;2024-02-26T06:07:30;6.30;73.30
22006;DHT22;11167;46.988;15.470;2024-02-26T06:09:31;6.30;73.50
22006;DHT22;11167;46.988;15.470;2024-02-26T06:11:33;6.30;73.50
22006;DHT22;11167;46.988;15.470;2024-02-26T06:13:35;6.30;73.50
22006;DHT22;11167;46.988;15.470;2024-02-26T06:15:36;6.30;73.50
22006;DHT22;11167;46.988;15.470;2024-02-26T06:17:38;6.30;73.50
22006;DHT22;11167;46.988;15.470;2024-02-26T06:19:39;6.30;73.50
22006;DHT22;11167;46.988;15.470;2024-02-26T06:21:40;6.20;73.50
22006;DHT22;11167;46.988;15.470;2024-02-26T06:23:41;6.20;73.50
22006;DHT22;11167;46.988;15.470;2024-02-26T06:25:43;6.20;73.50
22006;DHT22;11167;46.988;15.470;2024-02-26T06:27:44;6.20;73.50
22006;DHT22;11167;46.988;15.470;2024-02-26T06:29:45;6.20;73.50
22006;DHT22;11167;46.988;15.470;2024-02-26T06:31:46;6.20;73.50
22006;DHT22;11167;46.988;15.470;2024-02-26T06:33:49;6.20;73.60
22006;DHT22;11167;46.988;15.470;2024-02-26T06:35:50;6.10;73.50
22006;DHT22;11167;46.988;15.470;2024-02-26T06:37:51;6.10;73.50
22006;DHT22;11167;46.988;15.470;2024-02-26T06:39:53;6.10;73.50
22006;DHT22;11167;46.988;15.470;2024-02-26T06:41:56;6.10;73.50
22006;DHT22;11167;46.988;15.470;2024-02-26T06:43:59;6.10;73.50
22006;DHT22;11167;46.988;15.470;2024-02-26T06:46:01;6.10;73.50
22006;DHT22;11167;46.988;15.470;2024-02-26T06:48:02;6.10;73.70
22006;DHT22;11167;46.988;15.470;2024-02-26T06:50:03;6.10;73.50
22006;DHT22;11167;46.988;15.470;2024-02-26T06:52:06;6.10;73.60
22006;DHT22;11167;46.988;15.470;2024-02-26T06:54:07;6.00;73.60
22006;DHT22;11167;46.988;15.470;2024-02-26T06:56:08;6.00;73.60
22006;DHT22;11167;46.988;15.470;2024-02-26T06:58:09;6.00;73.60
22006;DHT22;11167;46.988;15.470;2024-02-26T07:00:12;6.00;73.60
22006;DHT22;11167;46.988;15.470;2024-02-26T07:02:15;6.00;73.60
22006;DHT22;11167;46.988;15.470;2024-02-26T07:04:17;6.00;73.80
22006;DHT22;11167;46.988;15.470;2024-02-26T07:06:18;6.00;74.60
22006;DHT22;11167;46.988;15.470;2024-02-26T07:08:19;6.00;73.60
22006;DHT22;11167;46.988;15.470;2024-02-26T07:10:21;5.90;73.60
22006;DHT22;11167;46.988;15.470;2024-02-26T07:12:22;5.90;73.70
22006;DHT22;11167;46.988;15.470;2024-02-26T07:14:24;5.90;74.40
22006;DHT22;11167;46.988;15.470;2024-02-26T07:16:28;5.90;73.70
22006;DHT22;11167;46.988;15.470;2024-02-26T07:18:29;5.90;73.60
22006;DHT22;11167;46.988;15.470;2024-02-26T07:20:31;5.90;73.60
22006;DHT22;11167;46.988;15.470;2024-02-26T07:22:32;5.90;73.70
22006;DHT22;11167;46.988;15.470;2024-02-26T07:24:33;5.90;73.60
22006;DHT22;11167;46.988;15.470;2024-02-26T07:26:34;5.90;73.60
22006;DHT22;11167;46.988;15.470;2024-02-26T07:28:36;5.90;73.60
22006;DHT22;11167;46.988;15.470;2024-02-26T07:30:37;5.90;73.60
22006;DHT22;11167;46.988;15.470;2024-02-26T07:32:39;5.90;73.60
22006;DHT22;11167;46.988;15.470;2024-02-26T07:34:40;5.90;73.70
22006;DHT22;11167;46.988;15.470;2024-02-26T07:36:43;5.90;73.70
22006;DHT22;11167;46.988;15.470;2024-02-26T07:38:45;5.80;73.60
22006;DHT22;11167;46.988;15.470;2024-02-26T07:40:46;5.90;73.80
22006;DHT22;11167;46.988;15.470;2024-02-26T07:42:48;5.80;73.60
22006;DHT22;11167;46.988;15.470;2024-02-26T07:44:49;5.80;73.60
22006;DHT22;11167;46.988;15.470;2024-02-26T07:46:50;5.80;73.70
22006;DHT22;11167;46.988;15.470;2024-02-26T07:48:51;5.80;73.60
22006;DHT22;11167;46.988;15.470;2024-02-26T07:50:53;5.80;73.70
22006;DHT22;11167;46.988;15.470;2024-02-26T07:52:54;5.80;73.60
22006;DHT22;11167;46.988;15.470;2024-02-26T07:54:55;5.80;73.60
22006;DHT22;11167;46.988;15.470;2024-02-26T07:56:56;5.80;73.60
22006;DHT22;11167;46.988;15.470;2024-02-26T07:58:57;5.80;73.70
22006;DHT22;11167;46.988;15.470;2024-02-26T08:00:59;5.80;73.60
22006;DHT22;11167;46.988;15.470;2024-02-26T08:03:00;5.80;73.70
22006;DHT22;11167;46.988;15.470;2024-02-26T08:05:02;5.80;73.70
22006;DHT22;11167;46.988;15.470;2024-02-26T08:07:05;5.80;73.70
22006;DHT22;11167;46.988;15.470;2024-02-26T08:09:06;5.80;73.60
22006;DHT22;11167;46.988;15.470;2024-02-26T08:11:08;5.80;73.70
22006;DHT22;11167;46.988;15.470;2024-02-26T08:13:09;5.80;73.70
22006;DHT22;11167;46.988;15.470;2024-02-26T08:15:11;5.80;73.70
22006;DHT22;11167;46.988;15.470;2024-02-26T08:17:12;5.80;73.80
22006;DHT22;11167;46.988;15.470;2024-02-26T08:19:14;5.80;73.70
22006;DHT22;11167;46.988;15.470;2024-02-26T08:21:16;5.80;73.70
22006;DHT22;11167;46.988;15.470;2024-02-26T08:23:17;5.80;73.70
22006;DHT22;11167;46.988;15.470;2024-02-26T08:25:19;5.80;73.80
22006;DHT22;11167;46.988;15.470;2024-02-26T08:27:20;5.80;73.80
22006;DHT22;11167;46.988;15.470;2024-02-26T08:29:21;5.80;73.80
22006;DHT22;11167;46.988;15.470;2024-02-26T08:31:23;5.80;73.80
22006;DHT22;11167;46.988;15.470;2024-02-26T08:33:24;5.80;73.80
22006;DHT22;11167;46.988;15.470;2024-02-26T08:35:26;5.80;73.80
22006;DHT22;11167;46.988;15.470;2024-02-26T08:37:27;5.80;73.80
22006;DHT22;11167;46.988;15.470;2024-02-26T08:39:29;5.80;73.70
22006;DHT22;11167;46.988;15.470;2024-02-26T08:41:30;5.80;73.80
22006;DHT22;11167;46.988;15.470;2024-02-26T08:43:31;5.80;73.80
22006;DHT22;11167;46.988;15.470;2024-02-26T08:45:32;5.80;73.80
22006;DHT22;11167;46.988;15.470;2024-02-26T08:47:34;5.80;73.80
22006;DHT22;11167;46.988;15.470;2024-02-26T08:49:35;5.80;73.80
22006;DHT22;11167;46.988;15.470;2024-02-26T08:51:44;5.80;73.80
22006;DHT22;11167;46.988;15.470;2024-02-26T08:53:46;5.80;73.80
22006;DHT22;11167;46.988;15.470;2024-02-26T08:55:47;5.80;74.00
22006;DHT22;11167;46.988;15.470;2024-02-26T08:57:48;5.80;73.90
22006;DHT22;11167;46.988;15.470;2024-02-26T08:59:49;5.80;73.90
22006;DHT22;11167;46.988;15.470;2024-02-26T09:01:50;5.80;74.00
22006;DHT22;11167;46.988;15.470;2024-02-26T09:03:52;5.90;74.00
22006;DHT22;11167;46.988;15.470;2024-02-26T09:05:53;5.90;74.10
22006;DHT22;11167;46.988;15.470;2024-02-26T09:07:54;5.90;74.00
22006;DHT22;11167;46.988;15.470;2024-02-26T09:09:55;5.90;74.20
22006;DHT22;11167;46.988;15.470;2024-02-26T09:11:57;5.90;74.20
22006;DHT22;11167;46.988;15.470;2024-02-26T09:13:59;5.90;74.30
22006;DHT22;11167;46.988;15.470;2024-02-26T09:16:00;5.90;74.40
22006;DHT22;11167;46.988;15.470;2024-02-26T09:18:02;6.00;74.30
22006;DHT22;11167;46.988;15.470;2024-02-26T09:20:05;6.00;74.40
22006;DHT22;11167;46.988;15.470;2024-02-26T09:22:07;6.00;74.40
22006;DHT22;11167;46.988;15.470;2024-02-26T09:24:08;6.00;74.40
22006;DHT22;11167;46.988;15.470;2024-02-26T09:26:09;6.00;74.50
22006;DHT22;11167;46.988;15.470;2024-02-26T09:28:10;6.00;74.50
22006;DHT22;11167;46.988;15.470;2024-02-26T09:30:13;6.00;74.40
22006;DHT22;11167;46.988;15.470;2024-02-26T09:32:15;6.10;74.50
22006;DHT22;11167;46.988;15.470;2024-02-26T09:34:16;6.10;74.60
22006;DHT22;11167;46.988;15.470;2024-02-26T09:36:17;6.10;74.70
22006;DHT22;11167;46.988;15.470;2024-02-26T09:38:18;6.10;74.70
22006;DHT22;11167;46.988;15.470;2024-02-26T09:40:20;6.10;74.70
22006;DHT22;11167;46.988;15.470;2024-02-26T09:42:24;6.20;74.90
22006;DHT22;11167;46.988;15.470;2024-02-26T09:44:26;6.20;75.70
22006;DHT22;11167;46.988;15.470;2024-02-26T09:46:31;6.20;74.90
22006;DHT22;11167;46.988;15.470;2024-02-26T09:48:34;6.20;75.00
22006;DHT22;11167;46.988;15.470;2024-02-26T09:50:36;6.30;75.80
22006;DHT22;11167;46.988;15.470;2024-02-26T09:52:38;6.30;75.20
22006;DHT22;11167;46.988;15.470;2024-02-26T09:54:41;6.30;75.20
22006;DHT22;11167;46.988;15.470;2024-02-26T09:56:42;6.30;75.20
22006;DHT22;11167;46.988;15.470;2024-02-26T09:58:44;6.40;75.40
22006;DHT22;11167;46.988;15.470;2024-02-26T10:00:54;6.40;75.40
22006;DHT22;11167;46.988;15.470;2024-02-26T10:02:58;6.40;75.40
22006;DHT22;11167;46.988;15.470;2024-02-26T10:05:02;6.50;75.40
22006;DHT22;11167;46.988;15.470;2024-02-26T10:07:09;6.50;75.60
22006;DHT22;11167;46.988;15.470;2024-02-26T10:09:10;6.50;75.50
22006;DHT22;11167;46.988;15.470;2024-02-26T10:11:13;6.50;75.60
22006;DHT22;11167;46.988;15.470;2024-02-26T10:13:16;6.50;75.70
22006;DHT22;11167;46.988;15.470;2024-02-26T10:15:18;6.60;75.80
22006;DHT22;11167;46.988;15.470;2024-02-26T10:17:20;6.60;75.80
22006;DHT22;11167;46.988;15.470;2024-02-26T10:19:28;6.60;75.80
22006;DHT22;11167;46.988;15.470;2024-02-26T10:21:30;6.70;75.80
22006;DHT22;11167;46.988;15.470;2024-02-26T10:23:31;6.70;75.80
22006;DHT22;11167;46.988;15.470;2024-02-26T10:25:32;6.70;75.80
22006;DHT22;11167;46.988;15.470;2024-02-26T10:27:34;6.80;75.80
22006;DHT22;11167;46.988;15.470;2024-02-26T10:29:36;6.80;76.00
22006;DHT22;11167;46.988;15.470;2024-02-26T10:31:37;6.80;76.00
22006;DHT22;11167;46.988;15.470;2024-02-26T10:33:39;6.90;75.90
22006;DHT22;11167;46.988;15.470;2024-02-26T10:35:45;6.90;75.90
22006;DHT22;11167;46.988;15.470;2024-02-26T10:37:48;6.90;76.00
22006;DHT22;11167;46.988;15.470;2024-02-26T10:39:50;6.90;75.90
22006;DHT22;11167;46.988;15.470;2024-02-26T10:41:51;7.00;75.90
22006;DHT22;11167;46.988;15.470;2024-02-26T10:43:54;7.00;76.10
22006;DHT22;11167;46.988;15.470;2024-02-26T10:45:56;7.10;76.10
22006;DHT22;11167;46.988;15.470;2024-02-26T10:47:57;7.10;76.10
22006;DHT22;11167;46.988;15.470;2024-02-26T10:49:58;7.10;76.10
22006;DHT22;11167;46.988;15.470;2024-02-26T10:52:01;7.20;76.20
22006;DHT22;11167;46.988;15.470;2024-02-26T10:54:04;7.10;76.10
22006;DHT22;11167;46.988;15.470;2024-02-26T10:56:09;7.20;76.10
22006;DHT22;11167;46.988;15.470;2024-02-26T10:58:12;7.30;76.30
22006;DHT22;11167;46.988;15.470;2024-02-26T11:00:15;7.30;76.30
22006;DHT22;11167;46.988;15.470;2024-02-26T11:02:17;7.40;76.50
22006;DHT22;11167;46.988;15.470;2024-02-26T11:04:20;7.40;76.30
22006;DHT22;11167;46.988;15.470;2024-02-26T11:06:22;7.40;76.40
22006;DHT22;11167;46.988;15.470;2024-02-26T11:08:24;7.50;76.40
22006;DHT22;11167;46.988;15.470;2024-02-26T11:10:27;7.50;76.50
22006;DHT22;11167;46.988;15.470;2024-02-26T11:12:32;7.60;76.50
22006;DHT22;11167;46.988;15.470;2024-02-26T11:14:33;7.60;76.50
22006;DHT22;11167;46.988;15.470;2024-02-26T11:16:35;7.60;76.50
22006;DHT22;11167;46.988;15.470;2024-02-26T11:18:40;7.70;76.60
22006;DHT22;11167;46.988;15.470;2024-02-26T11:20:43;7.70;76.50
22006;DHT22;11167;46.988;15.470;2024-02-26T11:22:45;7.70;76.50
22006;DHT22;11167;46.988;15.470;2024-02-26T11:24:46;7.80;76.60
22006;DHT22;11167;46.988;15.470;2024-02-26T11:26:54;7.80;76.60
22006;DHT22;11167;46.988;15.470;2024-02-26T11:29:03;7.80;76.60
22006;DHT22;11167;46.988;15.470;2024-02-26T11:31:05;7.90;76.60
22006;DHT22;11167;46.988;15.470;2024-02-26T11:33:08;7.90;76.60
22006;DHT22;11167;46.988;15.470;2024-02-26T11:35:10;8.00;76.70
22006;DHT22;11167;46.988;15.470;2024-02-26T11:37:16;8.00;77.50
22006;DHT22;11167;46.988;15.470;2024-02-26T11:39:18;8.00;76.70
22006;DHT22;11167;46.988;15.470;2024-02-26T11:41:20;8.10;76.80
22006;DHT22;11167;46.988;15.470;2024-02-26T11:45:48;8.20;76.80
22006;DHT22;11167;46.988;15.470;2024-02-26T11:47:58;8.20;76.90
22006;DHT22;11167;46.988;15.470;2024-02-26T11:50:32;8.30;76.90
22006;DHT22;11167;46.988;15.470;2024-02-26T11:52:08;8.30;76.80
22006;DHT22;11167;46.988;15.470;2024-02-26T11:54:09;8.30;76.80
22006;DHT22;11167;46.988;15.470;2024-02-26T11:56:21;8.40;76.90
22006;DHT22;11167;46.988;15.470;2024-02-26T11:58:31;8.40;76.90
22006;DHT22;11167;46.988;15.470;2024-02-26T12:00:32;8.50;76.90
22006;DHT22;11167;46.988;15.470;2024-02-26T12:02:50;8.50;76.90
22006;DHT22;11167;46.988;15.470;2024-02-26T12:05:02;8.60;77.00
22006;DHT22;11167;46.988;15.470;2024-02-26T12:07:08;8.60;77.00
22006;DHT22;11167;46.988;15.470;2024-02-26T12:09:09;8.60;77.10
22006;DHT22;11167;46.988;15.470;2024-02-26T12:11:16;8.70;77.10
22006;DHT22;11167;46.988;15.470;2024-02-26T12:13:19;8.70;77.00
22006;DHT22;11167;46.988;15.470;2024-02-26T12:15:22;8.80;77.10
22006;DHT22;11167;46.988;15.470;2024-02-26T12:17:25;8.80;77.10
22006;DHT22;11167;46.988;15.470;2024-02-26T12:19:27;8.90;77.10
22006;DHT22;11167;46.988;15.470;2024-02-26T12:21:29;8.90;77.20
22006;DHT22;11167;46.988;15.470;2024-02-26T12:23:30;9.00;76.80
22006;DHT22;11167;46.988;15.470;2024-02-26T12:25:32;9.00;77.10
22006;DHT22;11167;46.988;15.470;2024-02-26T12:27:34;9.10;77.20
22006;DHT22;11167;46.988;15.470;2024-02-26T12:29:35;9.10;77.10
22006;DHT22;11167;46.988;15.470;2024-02-26T12:31:37;9.10;77.10
22006;DHT22;11167;46.988;15.470;2024-02-26T12:33:38;9.20;77.20
22006;DHT22;11167;46.988;15.470;2024-02-26T12:35:40;9.20;78.20
22006;DHT22;11167;46.988;15.470;2024-02-26T12:37:42;9.30;77.20
22006;DHT22;11167;46.988;15.470;2024-02-26T12:39:43;9.30;77.20
22006;DHT22;11167;46.988;15.470;2024-02-26T12:41:47;9.40;77.30
22006;DHT22;11167;46.988;15.470;2024-02-26T12:43:51;9.40;77.20
22006;DHT22;11167;46.988;15.470;2024-02-26T12:45:54;9.50;77.30
22006;DHT22;11167;46.988;15.470;2024-02-26T12:47:55;9.50;77.30
22006;DHT22;11167;46.988;15.470;2024-02-26T12:49:57;9.50;77.20
22006;DHT22;11167;46.988;15.470;2024-02-26T12:51:59;9.60;77.20